Time;durP1;ratioP1;P1;durP2;ratioP2;P2;SDS_P1;SDS_P2;PMS_P1;PMS_P2;Temp;Humidity;BMP_temperature;BMP_pressure;BME280_temperature;BME280_humidity;BME280_pressure;Samples;Min_cycle;Max_cycle;Signal;HPM_P1;HPM_P2
2021/12/28 00:01:28;;;;;;;16.23;10.97;;;;;;;7.42;100.00;61593.50;5071643;28;20434;-75
2021/12/28 00:03:58;;;;;;;19.20;11.50;;;;;;;7.44;100.00;61592.56;5073281;28;20438;-73
2021/12/28 00:06:26;;;;;;;18.57;11.57;;;;;;;7.40;100.00;61593.34;5072271;28;20495;-73
2021/12/28 00:08:55;;;;;;;20.07;11.63;;;;;;;6.32;100.00;61479.16;5073149;28;20438;-74
2021/12/28 00:11:26;;;;;;;21.60;13.40;;;;;;;7.08;100.00;61559.72;5072578;28;20447;-74
2021/12/28 00:14:01;;;;;;;21.73;12.93;;;;;;;6.38;100.00;61479.97;5072359;28;20508;-74
2021/12/28 00:19:12;;;;;;;33.27;16.17;;;;;;;7.33;100.00;61585.88;5072178;28;20489;-76
2021/12/28 00:21:50;;;;;;;22.87;13.67;;;;;;;7.28;100.00;61580.53;5072861;28;21010;-74
2021/12/28 00:24:19;;;;;;;22.93;12.77;;;;;;;7.48;100.00;61602.44;5070318;28;20478;-74
2021/12/28 00:26:49;;;;;;;21.03;12.87;;;;;;;7.49;100.00;61600.44;5073480;28;20443;-76
2021/12/28 00:29:17;;;;;;;33.80;15.83;;;;;;;7.45;100.00;61598.69;5073148;28;20442;-76
2021/12/28 00:31:48;;;;;;;34.90;17.40;;;;;;;5.88;100.00;61432.78;5072275;28;20537;-76
2021/12/28 00:34:20;;;;;;;19.43;11.93;;;;;;;6.45;100.00;61487.44;5072553;28;20439;-76
2021/12/28 00:36:47;;;;;;;20.50;12.27;;;;;;;7.37;100.00;61585.63;5072217;28;20561;-74
2021/12/28 00:39:15;;;;;;;22.10;11.80;;;;;;;7.32;100.00;61579.75;5072837;28;20561;-74
2021/12/28 00:41:45;;;;;;;18.57;11.90;;;;;;;7.24;100.00;61579.34;5072206;28;20470;-75
2021/12/28 00:44:15;;;;;;;15.93;10.83;;;;;;;6.26;100.00;61469.72;5072252;28;20427;-73
2021/12/28 00:46:44;;;;;;;36.30;18.17;;;;;;;7.43;100.00;61591.50;5071864;28;20508;-74
2021/12/28 00:49:15;;;;;;;27.23;14.57;;;;;;;6.34;100.00;61478.25;5072027;28;20849;-74
2021/12/28 00:51:47;;;;;;;51.97;23.33;;;;;;;7.55;100.00;61609.91;5072312;28;20613;-74
2021/12/28 00:54:20;;;;;;;27.30;14.33;;;;;;;7.55;100.00;61604.84;5072259;28;20431;-74
2021/12/28 00:56:50;;;;;;;19.10;11.90;;;;;;;7.63;100.00;61615.38;5073755;28;20430;-76
2021/12/28 00:59:17;;;;;;;26.47;15.93;;;;;;;7.51;100.00;61600.03;5074320;28;20486;-76
2021/12/28 01:01:44;;;;;;;22.00;12.67;;;;;;;7.54;100.00;61608.84;5073308;28;20500;-75
2021/12/28 01:04:11;;;;;;;18.60;12.43;;;;;;;6.33;100.00;61477.16;5071885;28;20798;-76
2021/12/28 01:06:39;;;;;;;26.27;14.50;;;;;;;7.40;100.00;61593.91;5071743;28;20441;-75
2021/12/28 01:09:15;;;;;;;28.23;15.33;;;;;;;7.49;100.00;61598.44;5072032;28;20868;-75
2021/12/28 01:11:46;;;;;;;25.70;14.00;;;;;;;7.55;100.00;61604.84;5072680;28;20577;-75
2021/12/28 01:14:14;;;;;;;24.40;13.83;;;;;;;7.56;100.00;61610.97;5072523;28;20488;-76
2021/12/28 01:16:42;;;;;;;32.07;15.70;;;;;;;6.77;100.00;61527.19;5071911;28;20431;-76
2021/12/28 01:19:10;;;;;;;22.37;12.10;;;;;;;6.61;100.00;61507.03;5071952;28;20493;-75
2021/12/28 01:21:41;;;;;;;18.27;12.10;;;;;;;7.58;100.00;61612.59;5071202;28;20455;-76
2021/12/28 01:24:10;;;;;;;19.07;12.40;;;;;;;7.69;100.00;61621.78;5071790;28;20438;-76
2021/12/28 01:26:37;;;;;;;20.57;11.43;;;;;;;7.35;100.00;61588.56;5070419;28;20973;-74
2021/12/28 01:29:04;;;;;;;19.63;11.13;;;;;;;7.55;100.00;61604.31;5071893;28;20869;-76
2021/12/28 01:31:31;;;;;;;20.13;12.30;;;;;;;7.58;100.00;61610.59;5071634;28;20434;-76
2021/12/28 01:33:59;;;;;;;22.37;14.23;;;;;;;6.37;100.00;61478.91;5072241;28;20526;-74
2021/12/28 01:36:26;;;;;;;27.90;15.70;;;;;;;6.59;100.00;61507.44;5071590;28;20540;-73
2021/12/28 01:38:55;;;;;;;23.57;13.33;;;;;;;7.53;100.00;61605.25;5070329;28;20478;-74
2021/12/28 01:41:24;;;;;;;19.33;11.90;;;;;;;6.94;100.00;61537.19;5071406;28;20520;-73
2021/12/28 01:43:56;;;;;;;19.70;12.80;;;;;;;7.58;100.00;61608.06;5071496;28;20476;-75
2021/12/28 01:46:25;;;;;;;26.57;14.33;;;;;;;6.10;100.00;61460.75;5072065;28;20953;-75
2021/12/28 01:48:53;;;;;;;22.50;12.07;;;;;;;6.78;100.00;61522.66;5071673;28;20478;-75
2021/12/28 01:51:23;;;;;;;20.27;12.73;;;;;;;7.46;100.00;61594.69;5071538;28;20455;-75
2021/12/28 01:53:55;;;;;;;21.10;13.20;;;;;;;7.42;100.00;61590.97;5071434;28;20462;-75
2021/12/28 01:56:28;;;;;;;26.80;16.87;;;;;;;6.15;100.00;61457.97;5072425;28;20450;-75
2021/12/28 01:58:56;;;;;;;50.53;27.33;;;;;;;6.22;100.00;61470.50;5071430;28;20571;-75
2021/12/28 02:01:27;;;;;;;46.27;22.27;;;;;;;6.17;100.00;61462.63;5071987;28;20443;-74
2021/12/28 02:03:56;;;;;;;36.70;20.40;;;;;;;7.42;100.00;61590.97;5075110;28;20435;-74
2021/12/28 02:06:25;;;;;;;34.43;19.37;;;;;;;7.38;100.00;61586.69;5075098;28;20503;-75
2021/12/28 02:08:53;;;;;;;30.17;17.23;;;;;;;7.45;100.00;61594.16;5075113;28;20450;-76
2021/12/28 02:11:23;;;;;;;22.03;13.60;;;;;;;7.53;100.00;61607.78;5075180;28;20516;-74
2021/12/28 02:13:54;;;;;;;25.57;14.53;;;;;;;6.33;100.00;61474.63;5075148;28;20442;-75
2021/12/28 02:16:22;;;;;;;23.90;14.33;;;;;;;6.48;100.00;61490.66;5073866;28;20438;-75
2021/12/28 02:18:49;;;;;;;25.60;14.60;;;;;;;6.38;100.00;61480.50;5074687;28;20482;-76
2021/12/28 02:21:18;;;;;;;23.30;14.27;;;;;;;7.27;100.00;61580.00;5075321;28;20446;-73
2021/12/28 02:23:46;;;;;;;22.17;14.03;;;;;;;7.49;100.00;61598.44;5074675;28;20446;-75
2021/12/28 02:26:14;;;;;;;20.23;13.73;;;;;;;6.56;100.00;61504.25;5074815;28;20446;-75
2021/12/28 02:28:43;;;;;;;23.20;13.17;;;;;;;7.54;100.00;61606.31;5074723;28;20508;-75
2021/12/28 02:31:12;;;;;;;21.03;13.70;;;;;;;7.54;100.00;61603.78;5074608;28;20469;-74
2021/12/28 02:33:40;;;;;;;20.93;12.00;;;;;;;7.53;100.00;61607.78;5074616;28;20431;-75
2021/12/28 02:36:10;;;;;;;20.33;12.93;;;;;;;7.50;100.00;61604.56;5074621;28;20474;-75
2021/12/28 02:38:42;;;;;;;18.40;13.07;;;;;;;7.49;100.00;61603.50;5074726;28;20470;-75
2021/12/28 02:41:11;;;;;;;21.67;14.33;;;;;;;6.06;100.00;61450.91;5074476;28;20519;-75
2021/12/28 02:43:38;;;;;;;19.53;13.47;;;;;;;6.04;100.00;61446.25;5074310;28;20864;-74
2021/12/28 02:46:11;;;;;;;19.43;13.20;;;;;;;7.22;100.00;61574.69;5074310;28;20442;-75
2021/12/28 02:48:41;;;;;;;21.67;13.87;;;;;;;7.45;100.00;61596.69;5074335;28;20949;-74
2021/12/28 02:51:14;;;;;;;19.17;13.50;;;;;;;5.74;100.00;61415.31;5074212;28;20876;-75
2021/12/28 02:53:43;;;;;;;22.30;13.50;;;;;;;5.93;100.00;61433.06;5072904;28;20443;-74
2021/12/28 02:56:12;;;;;;;22.43;14.97;;;;;;;7.47;100.00;61600.81;5074098;28;21039;-73
2021/12/28 02:58:43;;;;;;;20.43;14.23;;;;;;;7.39;100.00;61592.28;5074130;28;20517;-76
2021/12/28 03:01:14;;;;;;;26.47;16.47;;;;;;;7.26;100.00;61578.94;5074570;28;20438;-75
2021/12/28 03:03:42;;;;;;;35.87;21.57;;;;;;;6.73;100.00;61522.38;5075401;28;20504;-76
2021/12/28 03:06:11;;;;;;;34.60;21.03;;;;;;;7.10;100.00;61561.34;5074523;28;20455;-75
2021/12/28 03:08:40;;;;;;;30.87;19.47;;;;;;;6.35;100.00;61481.81;5074442;28;20451;-75
2021/12/28 03:11:10;;;;;;;36.03;18.83;;;;;;;6.98;100.00;61549.06;5074131;28;20443;-75
2021/12/28 03:13:39;;;;;;;31.93;19.90;;;;;;;6.47;100.00;61492.09;5072998;28;20488;-75
2021/12/28 03:16:08;;;;;;;30.77;19.50;;;;;;;6.74;100.00;61523.44;5073951;28;20431;-75
2021/12/28 03:18:35;;;;;;;27.80;17.40;;;;;;;6.47;100.00;61489.56;5074073;28;20474;-74
2021/12/28 03:21:05;;;;;;;38.70;19.10;;;;;;;6.41;100.00;61485.69;5073868;28;20499;-75
2021/12/28 03:23:32;;;;;;;30.97;18.70;;;;;;;6.87;100.00;61537.31;5074113;28;20446;-75
2021/12/28 03:26:01;;;;;;;33.53;18.03;;;;;;;7.06;100.00;61555.06;5072956;28;20509;-75
2021/12/28 03:28:33;;;;;;;29.03;16.77;;;;;;;7.01;100.00;61547.19;5074094;28;20446;-76
2021/12/28 03:31:04;;;;;;;29.93;17.13;;;;;;;6.99;100.00;61545.06;5073708;28;21054;-74
2021/12/28 03:33:33;;;;;;;29.80;18.33;;;;;;;6.91;100.00;61535.97;5073634;28;20814;-74
2021/12/28 03:36:01;;;;;;;27.93;17.47;;;;;;;6.74;100.00;61523.44;5073155;28;20478;-74
2021/12/28 03:38:28;;;;;;;30.60;18.23;;;;;;;6.55;100.00;61503.69;5074454;28;20892;-74
2021/12/28 03:40:57;;;;;;;30.23;18.30;;;;;;;6.69;100.00;61518.09;5073466;28;20897;-74
2021/12/28 03:43:26;;;;;;;29.90;17.50;;;;;;;6.62;100.00;61508.13;5073226;28;20454;-77
2021/12/28 03:45:56;;;;;;;30.90;17.93;;;;;;;5.69;100.00;61407.47;5073169;28;20443;-74
2021/12/28 03:48:26;;;;;;;30.70;17.73;;;;;;;6.74;100.00;61523.44;5073073;28;20439;-74
2021/12/28 03:50:54;;;;;;;27.07;17.50;;;;;;;6.78;100.00;61522.66;5072944;28;20500;-74
2021/12/28 03:53:23;;;;;;;33.23;18.70;;;;;;;6.79;100.00;61523.72;5072528;28;20504;-74
2021/12/28 03:55:50;;;;;;;29.73;17.57;;;;;;;6.66;100.00;61512.38;5072873;28;20450;-76
2021/12/28 03:58:21;;;;;;;293.73;87.47;;;;;;;6.70;100.00;61519.19;5072923;28;20447;-76
2021/12/28 04:00:51;;;;;;;56.93;24.27;;;;;;;6.61;100.00;61509.56;5072895;28;20985;-74
2021/12/28 04:03:21;;;;;;;89.10;35.50;;;;;;;6.58;100.00;61504.38;5073101;28;20437;-74
2021/12/28 04:05:48;;;;;;;87.00;34.07;;;;;;;5.50;100.00;61392.25;5072855;28;20446;-75
2021/12/28 04:08:22;;;;;;;62.17;30.93;;;;;;;6.52;100.00;61494.91;5073062;28;20439;-75
2021/12/28 04:11:12;;;;;;;77.70;32.63;;;;;;;6.60;100.00;61503.44;5072083;28;20450;-74
2021/12/28 04:13:44;;;;;;;54.33;24.77;;;;;;;5.46;100.00;61387.97;5071668;28;20446;-75
2021/12/28 04:16:11;;;;;;;31.30;18.73;;;;;;;5.49;100.00;61386.13;5072189;28;20505;-73
2021/12/28 04:18:56;;;;;;;28.27;18.63;;;;;;;6.52;100.00;61495.44;5072903;28;20473;-75
2021/12/28 04:21:24;;;;;;;30.90;17.73;;;;;;;6.56;100.00;61501.72;5071235;28;21034;-76
2021/12/28 04:23:52;;;;;;;25.70;17.10;;;;;;;5.31;100.00;61366.97;5072224;28;20500;-74
2021/12/28 04:26:21;;;;;;;30.30;17.37;;;;;;;6.48;100.00;61495.72;5072371;28;20447;-75
2021/12/28 04:28:50;;;;;;;28.03;16.73;;;;;;;6.42;100.00;61484.75;5072228;28;20454;-76
2021/12/28 04:31:18;;;;;;;25.67;16.20;;;;;;;6.51;100.00;61493.84;5072036;28;20459;-74
2021/12/28 04:33:46;;;;;;;31.17;18.23;;;;;;;5.28;100.00;61366.28;5072203;28;21063;-74
2021/12/28 04:36:18;;;;;;;26.33;16.27;;;;;;;6.42;100.00;61484.25;5071988;28;20516;-74
2021/12/28 04:38:47;;;;;;;29.33;18.07;;;;;;;6.32;100.00;61474.09;5072004;28;21107;-74
2021/12/28 04:41:17;;;;;;;31.57;17.87;;;;;;;4.84;100.00;61322.47;5071801;28;20474;-76
2021/12/28 04:43:48;;;;;;;29.97;17.60;;;;;;;5.30;100.00;61372.91;5072103;28;20439;-76
2021/12/28 04:46:15;;;;;;;28.17;17.03;;;;;;;5.15;100.00;61349.91;5072651;28;20865;-75
2021/12/28 04:48:45;;;;;;;25.27;15.97;;;;;;;5.43;100.00;61389.84;5072011;28;20442;-75
2021/12/28 04:51:16;;;;;;;28.10;17.33;;;;;;;5.34;100.00;61374.66;5072305;28;20440;-74
2021/12/28 04:53:44;;;;;;;28.03;16.50;;;;;;;6.31;100.00;61477.56;5072121;28;20451;-74
2021/12/28 04:56:14;;;;;;;26.43;16.43;;;;;;;4.75;100.00;61310.34;5072597;28;20855;-77
2021/12/28 04:58:42;;;;;;;28.37;16.90;;;;;;;5.85;100.00;61432.13;5072089;28;20855;-74
2021/12/28 05:01:11;;;;;;;32.90;17.27;;;;;;;5.26;100.00;61366.13;5071496;28;20499;-75
2021/12/28 05:03:38;;;;;;;31.77;18.23;;;;;;;6.42;100.00;61484.25;5072583;28;20454;-74
2021/12/28 05:06:06;;;;;;;63.83;25.40;;;;;;;6.43;100.00;61490.91;5072140;28;20486;-74
2021/12/28 05:08:52;;;;;;;32.10;18.50;;;;;;;6.47;100.00;61489.56;5070911;28;20449;-76
2021/12/28 05:11:19;;;;;;;34.07;18.10;;;;;;;4.75;100.00;61310.34;5071827;28;20454;-75
2021/12/28 05:13:46;;;;;;;35.50;18.57;;;;;;;6.34;100.00;61480.78;5071620;28;20511;-74
2021/12/28 05:16:15;;;;;;;32.87;17.67;;;;;;;6.37;100.00;61478.91;5074070;28;20439;-74
2021/12/28 05:18:42;;;;;;;32.97;18.97;;;;;;;6.37;100.00;61478.91;5071848;28;20447;-74
2021/12/28 05:21:16;;;;;;;138.90;46.07;;;;;;;4.86;100.00;61319.56;5070391;28;20434;-75
2021/12/28 05:23:48;;;;;;;35.27;19.07;;;;;;;6.24;100.00;61470.09;5071709;28;20956;-74
2021/12/28 05:26:16;;;;;;;32.70;17.87;;;;;;;6.21;100.00;61461.84;5072263;28;20524;-75
2021/12/28 05:28:43;;;;;;;95.63;37.77;;;;;;;6.22;100.00;61470.50;5071650;28;20964;-73
2021/12/28 05:31:11;;;;;;;310.53;101.43;;;;;;;5.34;100.00;61375.19;5071983;28;20488;-75
2021/12/28 05:33:39;;;;;;;67.97;31.87;;;;;;;5.63;100.00;61406.13;5071972;28;20530;-74
2021/12/28 05:36:07;;;;;;;98.47;38.87;;;;;;;6.17;100.00;61458.09;5071766;28;20564;-73
2021/12/28 05:38:34;;;;;;;72.37;31.80;;;;;;;6.27;100.00;61468.25;5075488;28;20450;-74
2021/12/28 05:41:03;;;;;;;54.53;26.13;;;;;;;6.15;100.00;61450.38;5075520;28;20461;-76
2021/12/28 05:43:34;;;;;;;58.10;26.10;;;;;;;6.30;100.00;61473.97;5075537;28;20493;-75
2021/12/28 05:46:01;;;;;;;38.17;19.50;;;;;;;5.98;100.00;61438.38;5075458;28;20493;-76
2021/12/28 05:48:31;;;;;;;32.63;18.63;;;;;;;6.28;100.00;61471.84;5075135;28;20455;-75
2021/12/28 05:51:00;;;;;;;54.70;34.40;;;;;;;5.83;100.00;61431.94;5075332;28;20496;-75
2021/12/28 05:53:28;;;;;;;63.77;39.37;;;;;;;6.25;100.00;61471.16;5075471;28;20442;-76
2021/12/28 05:55:57;;;;;;;84.90;51.37;;;;;;;6.17;100.00;61457.56;5075754;28;20438;-76
2021/12/28 05:58:26;;;;;;;57.57;37.23;;;;;;;5.93;100.00;61435.59;5075676;28;20484;-74
2021/12/28 06:00:54;;;;;;;62.93;39.77;;;;;;;6.22;100.00;61463.44;5074944;28;20482;-74
2021/12/28 06:03:21;;;;;;;105.40;49.00;;;;;;;6.21;100.00;61461.84;5075110;28;20870;-74
2021/12/28 06:05:49;;;;;;;102.73;47.07;;;;;;;4.92;100.00;61327.94;5075020;28;20492;-74
2021/12/28 06:08:18;;;;;;;66.93;36.13;;;;;;;6.13;100.00;61458.38;5075153;28;20435;-75
2021/12/28 06:10:48;;;;;;;74.50;39.77;;;;;;;6.14;100.00;61457.44;5075870;28;20434;-75
2021/12/28 06:13:15;;;;;;;54.70;29.37;;;;;;;6.21;100.00;61466.91;5075086;28;20445;-75
2021/12/28 06:15:52;;;;;;;53.40;30.90;;;;;;;6.30;100.00;61476.50;5074909;28;20509;-76
2021/12/28 06:18:21;;;;;;;49.07;28.80;;;;;;;6.34;100.00;61483.31;5074844;28;20442;-75
2021/12/28 06:20:48;;;;;;;65.20;38.57;;;;;;;6.16;100.00;61457.03;5074741;28;20547;-77
2021/12/28 06:23:16;;;;;;;53.33;32.60;;;;;;;5.68;100.00;61406.38;5073546;28;20442;-76
2021/12/28 06:25:46;;;;;;;48.60;31.70;;;;;;;5.57;100.00;61399.19;5075011;28;20451;-76
2021/12/28 06:28:16;;;;;;;86.60;47.93;;;;;;;6.15;100.00;61450.38;5075218;28;20433;-75
2021/12/28 06:30:46;;;;;;;73.87;40.47;;;;;;;6.23;100.00;61469.56;5074370;28;20500;-76
2021/12/28 06:33:16;;;;;;;57.03;32.10;;;;;;;6.35;100.00;61477.31;5074605;28;20450;-75
2021/12/28 06:35:44;;;;;;;58.97;33.53;;;;;;;6.67;100.00;61516.50;5075048;28;20543;-76
2021/12/28 06:38:11;;;;;;;49.10;27.23;;;;;;;7.05;100.00;61551.47;5074060;28;20442;-75
2021/12/28 06:40:40;;;;;;;52.63;27.37;;;;;;;7.43;100.00;61589.50;5072855;28;20529;-76
2021/12/28 06:43:08;;;;;;;39.17;22.60;;;;;;;7.64;100.00;61617.00;5073228;28;20876;-76
2021/12/28 06:45:35;;;;;;;39.27;22.17;;;;;;;7.60;100.00;61615.25;5073869;28;20443;-74
2021/12/28 06:48:04;;;;;;;43.03;24.20;;;;;;;7.72;100.00;61621.94;5073223;28;20500;-74
2021/12/28 06:50:31;;;;;;;43.57;24.20;;;;;;;7.45;100.00;61593.63;5073063;28;21027;-75
2021/12/28 06:52:59;;;;;;;42.73;24.50;;;;;;;7.22;100.00;61574.69;5073168;28;20492;-75
2021/12/28 06:55:28;;;;;;;31.03;20.97;;;;;;;7.19;100.00;61570.94;5073418;28;20439;-75
2021/12/28 06:57:57;;;;;;;39.70;25.37;;;;;;;6.64;100.00;61507.72;5071907;28;20443;-74
2021/12/28 07:03:41;;;;;;;35.37;22.40;;;;;;;8.13;100.00;61666.25;5075591;28;20443;-74
2021/12/28 07:06:10;;;;;;;35.33;23.37;;;;;;;7.02;100.00;61550.78;5078887;28;20439;-74
2021/12/28 07:08:39;;;;;;;30.70;21.13;;;;;;;8.07;100.00;61664.41;5078790;28;20446;-73
2021/12/28 07:11:06;;;;;;;37.67;20.07;;;;;;;7.99;100.00;61653.84;5074770;28;20514;-74
2021/12/28 07:13:35;;;;;;;45.27;22.97;;;;;;;7.92;100.00;61645.81;5073449;28;20468;-77
2021/12/28 07:16:02;;;;;;;24.43;15.63;;;;;;;6.82;100.00;61526.91;5073327;28;20439;-76
2021/12/28 07:18:30;;;;;;;37.70;20.70;;;;;;;7.58;100.00;61608.06;5072439;28;20473;-74
2021/12/28 07:21:00;;;;;;;40.80;20.63;;;;;;;6.19;100.00;61459.72;5072478;28;21078;-74
2021/12/28 07:23:29;;;;;;;38.37;20.97;;;;;;;7.51;100.00;61600.56;5074091;28;20449;-74
2021/12/28 07:25:55;;;;;;;40.83;22.77;;;;;;;7.13;100.00;61554.94;5079307;28;20455;-77
2021/12/28 07:28:26;;;;;;;63.20;28.97;;;;;;;7.59;100.00;61609.09;5073245;28;20447;-74
2021/12/28 07:30:56;;;;;;;122.40;40.80;;;;;;;7.61;100.00;61610.72;5073553;28;20442;-77
2021/12/28 07:33:25;;;;;;;67.17;28.53;;;;;;;7.66;100.00;61621.66;5073140;28;20941;-74
2021/12/28 07:35:57;;;;;;;89.70;33.05;;;;;;;6.34;100.00;61478.25;4994119;28;2209902;-76
2021/12/28 07:38:35;;;;;;;52.13;25.23;;;;;;;7.48;100.00;61602.44;5073055;28;20250;-74
2021/12/28 07:41:04;;;;;;;48.40;23.83;;;;;;;7.52;100.00;61601.66;5073399;28;20580;-75
2021/12/28 07:43:31;;;;;;;46.60;23.10;;;;;;;7.29;100.00;61574.53;5073312;28;20509;-74
2021/12/28 07:45:59;;;;;;;47.73;24.57;;;;;;;7.52;100.00;61604.19;5074079;28;20794;-75
2021/12/28 07:48:27;;;;;;;131.63;48.37;;;;;;;6.56;100.00;61504.75;5074053;28;20888;-74
2021/12/28 07:50:54;;;;;;;72.87;27.93;;;;;;;7.93;100.00;61646.91;5073238;28;20500;-76
2021/12/28 07:53:21;;;;;;;66.57;29.97;;;;;;;7.38;100.00;61586.16;5073026;28;20442;-74
2021/12/28 07:55:57;;;;;;;63.00;30.00;;;;;;;8.00;100.00;61659.44;5072836;28;20492;-75
2021/12/28 07:58:27;;;;;;;54.00;28.73;;;;;;;7.65;100.00;61623.13;5073432;28;20517;-76
2021/12/28 08:00:55;;;;;;;40.27;23.27;;;;;;;8.25;100.00;61679.09;5072125;28;21041;-76
2021/12/28 08:03:27;;;;;;;43.67;25.83;;;;;;;8.43;100.00;61697.81;5073086;28;20517;-75
2021/12/28 08:05:54;;;;;;;44.80;26.13;;;;;;;8.58;100.00;61718.38;5072679;28;20454;-75
2021/12/28 08:08:22;;;;;;;40.03;25.27;;;;;;;7.40;100.00;61593.91;5072820;28;20893;-76
2021/12/28 08:10:51;;;;;;;43.33;26.77;;;;;;;8.78;100.00;61735.22;5072533;28;20442;-75
2021/12/28 08:13:18;;;;;;;48.17;27.70;;;;;;;7.99;100.00;61655.84;5072658;28;20500;-75
2021/12/28 08:15:46;;;;;;;42.07;27.40;;;;;;;9.07;100.00;61766.25;5071571;28;20449;-77
2021/12/28 08:18:16;;;;;;;45.03;27.37;;;;;;;9.21;100.00;61786.31;5073047;28;20451;-75
2021/12/28 08:20:45;;;;;;;38.00;22.37;;;;;;;9.29;100.00;61792.31;5072361;28;20485;-77
2021/12/28 08:23:13;;;;;;;37.70;23.70;;;;;;;9.43;100.00;61806.22;5072534;28;20816;-75
2021/12/28 08:25:42;;;;;;;37.63;23.93;;;;;;;9.51;100.00;61812.25;5072846;28;20489;-75
2021/12/28 08:28:20;;;;;;;31.73;20.23;;;;;;;9.61;100.00;61828.03;5072246;28;20500;-75
2021/12/28 08:30:50;;;;;;;34.20;19.97;;;;;;;9.73;100.00;61838.31;5071780;28;20965;-75
2021/12/28 08:33:18;;;;;;;36.60;21.07;;;;;;;9.56;100.00;61817.59;5072618;28;20439;-75
2021/12/28 08:35:46;;;;;;;42.77;24.83;;;;;;;9.68;100.00;61832.97;5069228;28;20224;-75
2021/12/28 08:38:14;;;;;;;33.90;22.17;;;;;;;9.21;100.00;61785.75;5072897;28;20458;-77
2021/12/28 08:40:44;;;;;;;37.87;23.07;;;;;;;9.60;100.00;61821.88;5072080;28;20494;-76
2021/12/28 08:43:19;;;;;;;38.10;23.10;;;;;;;8.98;100.00;61754.06;5072494;28;20516;-74
2021/12/28 08:45:47;;;;;;;23.67;15.23;;;;;;;9.96;100.00;61862.97;5072675;28;20580;-76
2021/12/28 08:48:14;;;;;;;23.43;14.67;;;;;;;9.99;100.00;61863.63;5071030;28;20435;-76
2021/12/28 08:50:42;;;;;;;25.23;15.67;;;;;;;9.62;100.00;61821.47;5072622;28;20431;-76
2021/12/28 08:53:10;;;;;;;22.70;16.00;;;;;;;9.58;100.00;61819.75;5072529;28;20196;-75
2021/12/28 08:55:38;;;;;;;22.87;13.70;;;;;;;9.02;100.00;61760.88;5072101;28;20443;-75
2021/12/28 08:58:06;;;;;;;22.00;15.27;;;;;;;10.13;100.00;61876.63;5072235;28;20302;-75
2021/12/28 09:00:35;;;;;;;21.53;14.17;;;;;;;10.11;100.00;61876.47;5071975;28;20902;-73
2021/12/28 09:03:03;;;;;;;20.87;13.57;;;;;;;10.27;100.00;61893.63;5071881;28;20525;-75
2021/12/28 09:05:31;;;;;;;18.10;13.00;;;;;;;10.40;100.00;61910.09;5072031;28;20272;-74
2021/12/28 09:07:59;;;;;;;20.33;14.07;;;;;;;10.52;100.00;61919.84;5071822;28;20192;-75
2021/12/28 09:10:30;;;;;;;19.73;13.37;;;;;;;10.73;100.00;61942.88;5070520;28;20208;-74
2021/12/28 09:13:04;;;;;;;21.10;13.77;;;;;;;10.77;100.00;61949.72;5071689;28;20192;-75
2021/12/28 09:15:37;;;;;;;24.43;12.80;;;;;;;10.69;100.00;61938.59;5072153;28;20203;-76
2021/12/28 09:18:05;;;;;;;18.50;12.67;;;;;;;10.72;100.00;61941.28;5073425;28;20868;-76
2021/12/28 09:20:36;;;;;;;15.00;11.27;;;;;;;10.89;100.00;61956.94;5071246;28;20485;-75
2021/12/28 09:23:04;;;;;;;18.10;11.93;;;;;;;10.16;100.00;61886.94;5072149;28;20639;-75
2021/12/28 09:25:37;;;;;;;14.77;10.70;;;;;;;11.14;100.00;61990.84;5071870;28;20208;-74
2021/12/28 09:28:07;;;;;;;14.80;10.27;;;;;;;11.13;100.00;61984.69;5072005;28;20200;-76
2021/12/28 09:30:40;;;;;;;16.83;10.10;;;;;;;11.01;100.00;61978.00;5072257;28;20632;-76
2021/12/28 09:33:09;;;;;;;15.40;9.57;;;;;;;9.65;100.00;61832.31;5076184;28;20200;-73
2021/12/28 09:35:41;;;;;;;12.03;9.13;;;;;;;11.12;100.00;61983.59;5072066;28;20196;-75
2021/12/28 09:38:08;;;;;;;14.87;9.33;;;;;;;11.11;100.00;61985.09;5072439;28;20773;-74
2021/12/28 09:40:39;;;;;;;11.63;8.53;;;;;;;11.30;100.00;62008.53;5071838;28;20238;-75
2021/12/28 09:43:09;;;;;;;16.07;9.53;;;;;;;11.31;100.00;62004.50;5071267;28;20578;-75
2021/12/28 09:45:39;;;;;;;11.83;9.77;;;;;;;11.48;100.00;62022.19;5072303;28;20590;-74
2021/12/28 09:48:11;;;;;;;14.23;9.30;;;;;;;11.57;100.00;62034.41;5072625;28;20206;-75
2021/12/28 09:50:45;;;;;;;12.43;7.60;;;;;;;11.55;100.00;62024.63;5071603;28;20212;-77
2021/12/28 09:53:25;;;;;;;14.63;8.43;;;;;;;10.65;100.00;61939.41;5072043;28;20205;-76
2021/12/28 09:55:53;;;;;;;13.30;9.07;;;;;;;10.83;100.00;61953.59;5072204;28;20204;-76
2021/12/28 09:58:26;;;;;;;14.57;9.10;;;;;;;11.26;100.00;62001.16;5071400;28;20663;-77
2021/12/28 10:00:56;;;;;;;13.73;8.70;;;;;;;11.70;100.00;62048.34;5072271;28;20227;-75
2021/12/28 10:06:16;;;;;;;11.87;7.23;;;;;;;10.91;100.00;61959.09;5070811;28;20236;-76
2021/12/28 10:08:46;;;;;;;12.43;6.23;;;;;;;11.75;100.00;62051.19;5070923;28;20208;-74
2021/12/28 10:11:14;;;;;;;7.77;5.20;;;;;;;12.08;100.00;62089.13;5072297;28;20200;-76
2021/12/28 10:13:45;;;;;;;9.33;5.53;;;;;;;11.31;100.00;62006.53;5071661;28;20196;-77
2021/12/28 10:16:16;;;;;;;8.93;6.13;;;;;;;11.53;100.00;62027.56;5072457;28;20211;-75
2021/12/28 10:18:45;;;;;;;10.67;4.80;;;;;;;12.70;100.00;62150.00;5071558;28;20636;-77
2021/12/28 10:21:31;;;;;;;8.77;5.10;;;;;;;12.86;100.00;62171.78;5071557;28;20232;-76
2021/12/28 10:24:08;;;;;;;9.87;5.93;;;;;;;12.85;100.00;62165.56;5074618;28;20685;-75
2021/12/28 10:26:39;;;;;;;7.23;4.50;;;;;;;12.67;100.00;62149.34;5075192;28;20211;-74
2021/12/28 10:29:30;;;;;;;8.40;5.13;;;;;;;12.82;100.00;62164.91;5075013;28;20208;-74
2021/12/28 10:32:25;;;;;;;8.03;5.30;;;;;;;12.90;100.00;62171.47;5075270;28;20205;-74
2021/12/28 10:35:00;;;;;;;7.80;5.70;;;;;;;12.94;100.00;62178.31;5074338;28;20291;-75
2021/12/28 10:37:34;;;;;;;8.97;5.63;;;;;;;13.00;100.00;62184.25;5075180;28;20620;-75
2021/12/28 10:40:03;;;;;;;11.83;5.10;;;;;;;12.23;100.00;62102.66;5074845;28;20685;-76
2021/12/28 10:42:59;;;;;;;7.43;5.30;;;;;;;13.15;100.00;62200.38;5074312;28;20228;-74
2021/12/28 10:45:37;;;;;;;13.00;7.03;;;;;;;12.47;100.00;62123.31;5075199;28;20206;-76
2021/12/28 10:48:17;;;;;;;9.57;5.90;;;;;;;13.34;100.00;62220.78;5075149;28;20257;-75
2021/12/28 10:53:37;;;;;;;7.57;5.70;;;;;;;13.28;100.00;62216.91;5074884;28;20243;-75
2021/12/28 10:56:16;;;;;;;8.57;5.60;;;;;;;13.36;100.00;62223.44;5074949;28;20196;-75
2021/12/28 10:58:54;;;;;;;7.47;5.53;;;;;;;13.26;100.00;62212.19;5074676;28;20205;-75
2021/12/28 11:01:35;;;;;;;9.07;5.87;;;;;;;13.24;100.00;62204.94;5074828;28;20230;-77
2021/12/28 11:04:10;;;;;;;12.43;6.90;;;;;;;-141.29;100.00;58932.97;5075179;28;20196;-74
2021/12/28 11:06:38;;;;;;;9.67;6.50;;;;;;;-141.29;100.00;58932.97;5074518;28;20754;-75
2021/12/28 11:09:10;;;;;;;9.87;6.37;;;;;;;-141.29;100.00;58932.97;5074300;28;20200;-74
2021/12/28 11:11:40;;;;;;;10.40;6.03;;;;;;;-141.29;100.00;58932.97;5074723;28;20200;-73
2021/12/28 11:14:16;;;;;;;13.13;8.37;;;;;;;-141.29;100.00;58932.97;5073779;28;20215;-74
2021/12/28 11:16:55;;;;;;;13.77;8.00;;;;;;;-141.29;100.00;58932.97;5073789;28;20235;-73
2021/12/28 11:20:30;;;;;;;12.10;7.17;;;;;;;-141.29;100.00;58932.97;5074229;28;20675;-74
2021/12/28 11:23:14;;;;;;;13.33;6.60;;;;;;;-141.29;100.00;58932.97;5073979;28;20239;-76
2021/12/28 11:26:43;;;;;;;10.93;6.27;;;;;;;-141.29;100.00;58932.97;5074353;28;20279;-76
2021/12/28 11:30:13;;;;;;;9.23;5.60;;;;;;;-141.29;100.00;58932.97;5073085;28;20234;-75
2021/12/28 11:33:44;;;;;;;7.07;5.33;;;;;;;-141.29;100.00;58932.97;5072785;28;20207;-76
2021/12/28 11:36:37;;;;;;;8.03;6.03;;;;;;;-141.29;100.00;58932.97;5071133;28;20206;-76
2021/12/28 11:40:17;;;;;;;6.13;5.23;;;;;;;-141.29;100.00;58932.97;5073831;28;20196;-75
2021/12/28 11:43:45;;;;;;;6.87;4.87;;;;;;;-141.29;100.00;58932.97;5079473;28;20250;-74
2021/12/28 11:46:30;;;;;;;9.63;5.10;;;;;;;-141.29;100.00;58932.97;5079040;28;20208;-73
2021/12/28 11:49:01;;;;;;;8.27;4.93;;;;;;;-141.29;100.00;58932.97;5073014;28;20206;-74